createdAt,value
2024-05-09T00:01:57.379Z,20.48
2024-05-09T00:06:59.245Z,15.77
2024-05-09T00:12:03.886Z,15.15
2024-05-09T00:17:05.962Z,15.07
2024-05-09T00:22:10.043Z,14.50
2024-05-09T00:27:15.047Z,15.15
2024-05-09T00:32:21.672Z,16.58
2024-05-09T00:37:23.638Z,15.82
2024-05-09T00:42:27.570Z,15.73
2024-05-09T00:47:29.557Z,16.00
2024-05-09T00:52:34.420Z,17.67
2024-05-09T00:57:39.864Z,18.38
2024-05-09T01:02:41.921Z,17.58
2024-05-09T01:07:44.994Z,17.38
2024-05-09T01:12:46.931Z,18.38
2024-05-09T01:17:51.297Z,17.35
2024-05-09T01:22:54.207Z,21.27
2024-05-09T01:27:56.083Z,19.90
2024-05-09T01:33:01.354Z,20.65
2024-05-09T01:38:05.920Z,22.58
2024-05-09T01:43:12.039Z,24.50
2024-05-09T01:48:14.286Z,26.95
2024-05-09T01:53:16.321Z,21.23
2024-05-09T01:58:18.271Z,25.48
2024-05-09T02:03:21.484Z,23.13
2024-05-09T02:08:23.465Z,24.60
2024-05-09T02:13:25.370Z,21.63
2024-05-09T02:18:29.546Z,21.67
2024-05-09T02:23:34.504Z,24.77
2024-05-09T02:28:36.488Z,29.05
2024-05-09T02:33:42.739Z,25.50
2024-05-09T02:38:44.989Z,30.38
2024-05-09T02:43:46.925Z,25.35
2024-05-09T02:48:49.036Z,21.42
2024-05-09T02:53:53.472Z,29.65
2024-05-09T02:58:57.589Z,29.98
2024-05-09T03:04:01.762Z,27.05
2024-05-09T03:09:09.681Z,25.45
2024-05-09T03:14:17.320Z,25.67
2024-05-09T03:19:22.081Z,34.67
2024-05-09T03:24:26.802Z,26.13
2024-05-09T03:29:31.354Z,24.77
2024-05-09T03:34:33.705Z,26.90
2024-05-09T03:39:36.084Z,23.33
2024-05-09T03:44:38.769Z,22.30
2024-05-09T03:49:41.096Z,26.57
2024-05-09T03:54:48.880Z,22.17
2024-05-09T03:59:53.173Z,20.33
2024-05-09T04:04:57.618Z,24.43
2024-05-09T04:09:59.690Z,23.30
2024-05-09T04:15:04.372Z,22.70
2024-05-09T04:20:10.568Z,23.15
2024-05-09T04:25:12.869Z,23.88
2024-05-09T04:30:25.776Z,24.40
2024-05-09T04:35:38.253Z,25.77
2024-05-09T04:40:40.652Z,28.83
2024-05-09T04:45:42.926Z,27.00
2024-05-09T04:50:45.255Z,24.63
2024-05-09T04:55:47.298Z,25.75
2024-05-09T05:00:49.255Z,22.88
2024-05-09T05:05:51.654Z,27.35
2024-05-09T05:10:56.172Z,32.67
2024-05-09T05:15:58.687Z,33.00
2024-05-09T05:21:01.186Z,36.65
2024-05-09T05:26:03.211Z,32.15
2024-05-09T05:31:05.238Z,31.17
2024-05-09T05:36:07.810Z,32.85
2024-05-09T05:41:10.276Z,31.83
2024-05-09T05:46:12.180Z,30.08
2024-05-09T05:51:14.215Z,25.83
2024-05-09T05:56:16.424Z,31.77
2024-05-09T06:01:20.881Z,27.60
2024-05-09T06:06:22.917Z,25.13
2024-05-09T06:11:27.479Z,25.33
2024-05-09T06:16:29.405Z,25.27
2024-05-09T06:21:31.275Z,24.52
2024-05-09T06:26:33.592Z,22.48
2024-05-09T06:31:45.036Z,21.25
2024-05-09T06:36:47.722Z,20.20
2024-05-09T06:41:50.486Z,19.52
2024-05-09T06:46:58.185Z,20.27
2024-05-09T06:52:02.179Z,21.45
2024-05-09T06:57:08.029Z,19.08
2024-05-09T07:02:10.311Z,21.63
2024-05-09T07:07:14.953Z,20.50
2024-05-09T07:12:17.706Z,18.25
2024-05-09T07:17:20.544Z,18.77
2024-05-09T07:22:25.693Z,19.63
2024-05-09T07:27:32.610Z,18.13
2024-05-09T07:32:36.966Z,17.33
2024-05-09T07:37:41.051Z,17.05
2024-05-09T07:42:46.148Z,17.60
2024-05-09T07:49:13.244Z,16.23
2024-05-09T07:53:37.282Z,18.40
2024-05-09T07:58:35.195Z,17.25
2024-05-09T08:03:40.535Z,17.30
2024-05-09T08:08:43.159Z,18.80
2024-05-09T08:13:45.349Z,17.58
2024-05-09T08:18:47.764Z,16.15
2024-05-09T08:23:49.749Z,14.90
2024-05-09T08:28:56.809Z,14.50
2024-05-09T08:34:02.067Z,11.63
2024-05-09T08:39:04.338Z,15.63
2024-05-09T08:44:10.001Z,14.15
2024-05-09T08:49:12.462Z,13.80
2024-05-09T08:54:18.048Z,12.82
2024-05-09T08:59:27.973Z,13.57
2024-05-09T09:04:31.327Z,13.07
2024-05-09T09:09:35.727Z,12.57
2024-05-09T09:14:38.070Z,13.05
2024-05-09T09:19:46.334Z,11.35
2024-05-09T09:24:51.944Z,11.15
2024-05-09T09:29:56.909Z,12.00
2024-05-09T09:35:01.254Z,11.65
2024-05-09T09:40:04.642Z,13.23
2024-05-09T09:45:09.195Z,13.35
2024-05-09T09:50:20.357Z,11.23
2024-05-09T09:55:26.354Z,12.02
2024-05-09T10:00:33.251Z,13.18
2024-05-09T10:05:41.184Z,13.35
2024-05-09T10:10:51.236Z,14.05
2024-05-09T10:15:54.744Z,12.65
2024-05-09T10:20:56.811Z,12.52
2024-05-09T10:26:00.407Z,11.35
2024-05-09T10:31:09.632Z,12.35
2024-05-09T10:36:13.178Z,16.08
2024-05-09T10:41:40.583Z,11.88
2024-05-09T10:46:43.490Z,11.85
2024-05-09T10:51:48.755Z,12.43
2024-05-09T10:56:58.192Z,12.80
2024-05-09T11:02:08.635Z,20.50
2024-05-09T11:07:13.972Z,12.88
2024-05-09T11:12:16.023Z,12.82
2024-05-09T11:17:18.619Z,11.27
2024-05-09T11:22:25.362Z,11.43
2024-05-09T11:27:27.871Z,17.35
2024-05-09T11:32:30.682Z,11.88
2024-05-09T11:37:36.052Z,11.88
2024-05-09T11:42:47.737Z,28.10
2024-05-09T11:47:51.364Z,14.05
2024-05-09T11:52:58.413Z,13.15
2024-05-09T11:58:00.689Z,12.25
2024-05-09T12:03:06.321Z,21.15
2024-05-09T12:08:10.069Z,11.40
2024-05-09T12:13:12.061Z,11.60
2024-05-09T12:18:16.598Z,13.07
2024-05-09T12:23:21.732Z,34.15
2024-05-09T12:28:24.307Z,10.25
2024-05-09T12:33:27.422Z,9.48
2024-05-09T12:38:32.754Z,20.98
2024-05-09T12:43:35.628Z,12.20
2024-05-09T12:48:43.016Z,12.32
2024-05-09T12:53:45.665Z,8.95
2024-05-09T12:58:49.833Z,11.23
2024-05-09T13:03:54.874Z,11.10
2024-05-09T13:08:57.570Z,7.88
2024-05-09T13:13:59.781Z,9.85
2024-05-09T13:19:07.031Z,8.20
2024-05-09T13:24:11.542Z,7.65
2024-05-09T13:29:13.516Z,7.80
2024-05-09T13:34:16.043Z,7.57
2024-05-09T13:39:18.427Z,7.13
2024-05-09T13:44:20.714Z,7.22
2024-05-09T13:49:22.863Z,6.20
2024-05-09T13:54:28.219Z,5.35
2024-05-09T13:59:30.663Z,6.10
2024-05-09T14:04:35.251Z,5.20
2024-05-09T14:09:37.854Z,4.82
2024-05-09T14:14:42.720Z,5.18
2024-05-09T14:19:46.549Z,5.57
2024-05-09T14:24:49.399Z,6.03
2024-05-09T14:29:52.480Z,5.07
2024-05-09T14:34:54.718Z,5.57
2024-05-09T14:40:01.586Z,5.70
2024-05-09T14:45:06.451Z,4.88
2024-05-09T14:50:16.865Z,4.60
2024-05-09T14:55:45.947Z,5.13
2024-05-09T15:01:10.490Z,5.10
2024-05-09T15:06:35.029Z,5.25
2024-05-09T15:11:57.521Z,5.50
2024-05-09T15:17:22.206Z,6.10
2024-05-09T15:22:47.616Z,6.07
2024-05-09T15:27:52.168Z,5.10
2024-05-09T15:32:57.000Z,5.30
2024-05-09T15:38:03.598Z,6.10
2024-05-09T15:43:07.001Z,5.95
2024-05-09T15:48:10.409Z,6.25
2024-05-09T15:53:13.933Z,5.93
2024-05-09T15:58:16.385Z,5.22
2024-05-09T16:03:21.565Z,4.20
2024-05-09T16:08:24.162Z,7.63
2024-05-09T16:13:26.419Z,5.45
2024-05-09T16:18:29.261Z,5.18
2024-05-09T16:23:31.414Z,10.07
2024-05-09T16:28:33.972Z,5.60
2024-05-09T16:33:40.556Z,7.18
2024-05-09T16:38:45.612Z,11.43
2024-05-09T16:43:47.800Z,8.13
2024-05-09T16:48:52.885Z,7.60
2024-05-09T16:53:55.595Z,6.88
2024-05-09T16:58:57.619Z,8.10
2024-05-09T17:04:00.132Z,6.95
2024-05-09T17:09:08.619Z,7.03
2024-05-09T17:14:16.992Z,6.18
2024-05-09T17:19:19.441Z,6.20
2024-05-09T17:24:22.084Z,6.68
2024-05-09T17:29:28.545Z,6.93
2024-05-09T17:34:33.514Z,6.88
2024-05-09T17:39:35.757Z,7.55
2024-05-09T17:44:37.892Z,5.88
2024-05-09T17:49:40.321Z,6.38
2024-05-09T17:54:42.738Z,7.18
2024-05-09T17:59:44.918Z,5.10
2024-05-09T18:04:47.158Z,6.00
2024-05-09T18:09:49.338Z,4.47
2024-05-09T18:14:51.397Z,4.60
2024-05-09T18:19:53.907Z,5.40
2024-05-09T18:24:56.354Z,4.13
2024-05-09T18:29:58.838Z,4.47
2024-05-09T18:35:00.894Z,4.30
2024-05-09T18:40:03.376Z,4.13
2024-05-09T18:45:07.321Z,4.53
2024-05-09T18:50:17.560Z,4.50
2024-05-09T18:55:27.230Z,4.75
2024-05-09T19:00:37.542Z,5.30
2024-05-09T19:05:44.653Z,4.72
2024-05-09T19:10:52.936Z,5.18
2024-05-09T19:15:55.416Z,4.90
2024-05-09T19:20:59.890Z,4.10
2024-05-09T19:26:04.151Z,4.95
2024-05-09T19:31:06.109Z,4.15
2024-05-09T19:36:08.282Z,3.92
2024-05-09T19:41:10.205Z,4.40
2024-05-09T19:46:12.554Z,4.95
2024-05-09T19:51:19.454Z,5.82
2024-05-09T19:56:26.397Z,6.20
2024-05-09T20:01:32.815Z,6.55
2024-05-09T20:06:36.684Z,5.80
2024-05-09T20:11:41.178Z,6.10
2024-05-09T20:16:44.741Z,7.20
2024-05-09T20:21:46.694Z,6.70
2024-05-09T20:26:48.599Z,5.57
2024-05-09T20:31:50.456Z,5.72
2024-05-09T20:36:57.893Z,6.40
2024-05-09T20:42:02.192Z,6.20
2024-05-09T20:47:04.268Z,5.95
2024-05-09T20:52:06.384Z,7.00
2024-05-09T20:57:13.213Z,6.13
2024-05-09T21:02:15.686Z,6.47
2024-05-09T21:07:17.963Z,6.78
2024-05-09T21:12:19.862Z,6.70
2024-05-09T21:17:21.866Z,6.15
2024-05-09T21:22:23.815Z,6.38
2024-05-09T21:27:25.836Z,6.80
2024-05-09T21:32:30.433Z,6.28
2024-05-09T21:37:32.474Z,6.30
2024-05-09T21:42:36.894Z,6.13
2024-05-09T21:47:41.136Z,6.05
2024-05-09T21:52:43.072Z,7.38
2024-05-09T21:57:44.921Z,7.25
2024-05-09T22:02:50.138Z,8.75
2024-05-09T22:07:54.119Z,8.75
2024-05-09T22:12:59.233Z,8.73
2024-05-09T22:18:01.285Z,13.88
2024-05-09T22:23:04.581Z,19.60
2024-05-09T22:28:07.423Z,19.08
2024-05-09T22:33:11.999Z,18.02
2024-05-09T22:38:14.807Z,18.83
2024-05-09T22:43:19.257Z,16.10
2024-05-09T22:48:21.665Z,9.98
2024-05-09T22:53:26.453Z,11.15
2024-05-09T22:58:30.618Z,10.52
2024-05-09T23:03:35.607Z,9.75
2024-05-09T23:08:37.645Z,10.98
2024-05-09T23:13:41.747Z,10.02
2024-05-09T23:18:43.798Z,10.88
2024-05-09T23:23:47.963Z,11.77
2024-05-09T23:28:52.020Z,10.75
2024-05-09T23:33:57.013Z,10.65
2024-05-09T23:38:59.177Z,12.35
2024-05-09T23:44:01.001Z,10.43
2024-05-09T23:49:03.093Z,10.55
2024-05-09T23:54:08.616Z,13.80
2024-05-09T23:59:10.485Z,12.70
